createdAt,value
2022-09-26T00:00:02.213Z,24
2022-09-26T00:01:03.407Z,24
2022-09-26T00:02:02.040Z,23.7
2022-09-26T00:03:02.061Z,23.5
2022-09-26T00:04:01.717Z,23.4
2022-09-26T00:05:01.110Z,23.4
2022-09-26T00:06:06.016Z,23.3
2022-09-26T00:07:01.450Z,23.3
2022-09-26T00:08:01.199Z,23.2
2022-09-26T00:09:04.565Z,23.2
2022-09-26T00:10:01.050Z,23.5
2022-09-26T00:11:09.090Z,23.5
2022-09-26T00:12:01.769Z,23.4
2022-09-26T00:13:01.139Z,23.4
2022-09-26T00:14:02.432Z,23.3
2022-09-26T00:15:01.194Z,23.2
2022-09-26T00:16:11.406Z,23.2
2022-09-26T00:17:02.182Z,23.4
2022-09-26T00:18:02.061Z,23.5
2022-09-26T00:19:01.180Z,23.4
2022-09-26T00:20:01.058Z,23.3
2022-09-26T00:21:13.846Z,24.3
2022-09-26T00:22:02.507Z,25.7
2022-09-26T00:23:04.527Z,27.2
2022-09-26T00:24:01.146Z,28.2
2022-09-26T00:25:01.858Z,28.8
2022-09-26T00:26:16.736Z,29.4
2022-09-26T00:27:01.071Z,29.5
2022-09-26T00:28:01.125Z,30.3
2022-09-26T00:29:01.126Z,30.5
2022-09-26T00:30:01.561Z,30.5
2022-09-26T00:31:00.926Z,31
2022-09-26T00:32:00.635Z,31.4
2022-09-26T00:33:00.326Z,31.8
2022-09-26T00:33:59.999Z,31.8
2022-09-26T00:34:59.698Z,32
2022-09-26T00:36:01.837Z,32.2
2022-09-26T00:37:01.154Z,33.3
2022-09-26T00:38:01.203Z,34
2022-09-26T00:39:01.084Z,34.5
2022-09-26T00:40:01.082Z,35.2
2022-09-26T00:41:01.194Z,36.1
2022-09-26T00:42:01.528Z,36.6
2022-09-26T00:43:01.143Z,37.2
2022-09-26T00:44:01.067Z,37.9
2022-09-26T00:45:01.435Z,38.1
2022-09-26T00:46:01.189Z,38.8
2022-09-26T00:47:01.249Z,39.9
2022-09-26T00:48:01.257Z,40.6
2022-09-26T00:49:01.541Z,41.1
2022-09-26T00:50:01.230Z,41.6
2022-09-26T00:51:01.153Z,41.9
2022-09-26T00:52:01.073Z,41.8
2022-09-26T00:53:01.057Z,41.8
2022-09-26T00:54:01.103Z,41.7
2022-09-26T00:55:01.043Z,41.6
2022-09-26T00:56:01.089Z,41.7
2022-09-26T00:57:01.358Z,41.9
2022-09-26T00:58:04.082Z,42
2022-09-26T00:59:01.153Z,42.4
2022-09-26T01:00:01.105Z,42.6
2022-09-26T01:01:01.538Z,43.1
2022-09-26T01:02:01.460Z,43.7
2022-09-26T01:03:01.132Z,44.1
2022-09-26T01:04:01.949Z,44.8
2022-09-26T01:05:01.494Z,45.3
2022-09-26T01:06:02.528Z,45.4
2022-09-26T01:07:01.873Z,45.7
2022-09-26T01:08:01.128Z,45.8
2022-09-26T01:09:02.330Z,46.2
2022-09-26T01:10:01.754Z,46.1
2022-09-26T01:11:02.019Z,45.8
2022-09-26T01:12:01.911Z,45.7
2022-09-26T01:13:01.115Z,45.6
2022-09-26T01:14:01.285Z,45.2
2022-09-26T01:15:01.520Z,45.1
2022-09-26T01:16:04.021Z,44.9
2022-09-26T01:17:01.170Z,44.7
2022-09-26T01:18:01.122Z,44.4
2022-09-26T01:19:01.139Z,44.3
2022-09-26T01:20:01.632Z,44.2
2022-09-26T01:21:01.179Z,44.2
2022-09-26T01:22:01.935Z,44.1
2022-09-26T01:23:01.907Z,44.2
2022-09-26T01:24:01.748Z,44.2
2022-09-26T01:25:02.278Z,44.2
2022-09-26T01:26:01.488Z,44.2
2022-09-26T01:27:01.102Z,44.2
2022-09-26T01:28:01.768Z,44.2
2022-09-26T01:29:01.098Z,43.8
2022-09-26T01:30:01.100Z,43.3
2022-09-26T01:31:01.151Z,43.7
2022-09-26T01:32:01.426Z,43.7
2022-09-26T01:33:02.838Z,43.7
2022-09-26T01:34:02.024Z,43.9
2022-09-26T01:35:02.040Z,43.8
2022-09-26T01:36:01.252Z,43.8
2022-09-26T01:37:01.955Z,43.9
2022-09-26T01:38:01.370Z,43.7
2022-09-26T01:39:01.551Z,43.8
2022-09-26T01:40:02.210Z,43.7
2022-09-26T01:41:01.148Z,43.9
2022-09-26T01:42:04.425Z,43.5
2022-09-26T01:43:01.074Z,43.3
2022-09-26T01:44:01.047Z,42.9
2022-09-26T01:45:01.151Z,42.1
2022-09-26T01:46:01.615Z,41.8
2022-09-26T01:47:07.630Z,41.9
2022-09-26T01:48:01.237Z,41.6
2022-09-26T01:49:01.910Z,41.4
2022-09-26T01:50:01.711Z,40.9
2022-09-26T01:51:01.068Z,40.5
2022-09-26T01:52:10.229Z,39.9
2022-09-26T01:53:01.159Z,39.5
2022-09-26T01:54:01.149Z,40
2022-09-26T01:55:01.791Z,40.7
2022-09-26T01:56:03.881Z,41.3
2022-09-26T01:57:13.390Z,41.7
2022-09-26T01:58:01.062Z,42
2022-09-26T01:59:01.082Z,42
2022-09-26T02:00:01.044Z,42.4
2022-09-26T02:01:01.149Z,42.9
2022-09-26T02:02:16.124Z,43.1
2022-09-26T02:03:02.115Z,43.3
2022-09-26T02:04:01.782Z,43.5
2022-09-26T02:05:01.066Z,43.4
2022-09-26T02:06:01.046Z,42.9
2022-09-26T02:07:01.050Z,43.3
2022-09-26T02:08:01.064Z,43.5
2022-09-26T02:09:01.111Z,44
2022-09-26T02:10:01.435Z,44.1
2022-09-26T02:11:01.179Z,44.2
2022-09-26T02:12:01.897Z,44.2
2022-09-26T02:13:07.953Z,44.1
2022-09-26T02:14:01.759Z,44.1
2022-09-26T02:15:01.094Z,44.5
2022-09-26T02:16:01.092Z,44.3
2022-09-26T02:17:01.210Z,44.8
2022-09-26T02:18:02.534Z,44.8
2022-09-26T02:19:01.000Z,44.7
2022-09-26T02:20:01.532Z,44.7
2022-09-26T02:21:01.609Z,45
2022-09-26T02:22:01.199Z,45.3
2022-09-26T02:23:01.162Z,45.2
2022-09-26T02:24:01.169Z,45.4
2022-09-26T02:25:01.165Z,45.6
2022-09-26T02:26:01.169Z,45.9
2022-09-26T02:27:01.813Z,46.2
2022-09-26T02:28:01.080Z,46.4
2022-09-26T02:29:01.075Z,47.1
2022-09-26T02:30:01.193Z,47.5
2022-09-26T02:31:01.261Z,47.8
2022-09-26T02:32:01.364Z,48
2022-09-26T02:33:01.089Z,48
2022-09-26T02:34:01.316Z,48.2
2022-09-26T02:35:01.046Z,48.7
2022-09-26T02:36:01.136Z,49.2
2022-09-26T02:37:01.182Z,49.8
2022-09-26T02:38:01.358Z,49.8
2022-09-26T02:39:01.511Z,50.2
2022-09-26T02:40:04.726Z,50.4
2022-09-26T02:41:01.380Z,50.5
2022-09-26T02:42:01.079Z,51.6
2022-09-26T02:43:01.093Z,52.3
2022-09-26T02:44:01.073Z,52.9
2022-09-26T02:45:01.044Z,54
2022-09-26T02:46:01.822Z,55.1
2022-09-26T02:49:01.043Z,56.1
2022-09-26T02:50:01.121Z,56.2
2022-09-26T02:51:01.121Z,56.5
2022-09-26T02:52:01.127Z,56.5
2022-09-26T02:53:01.126Z,56.6
2022-09-26T02:54:01.415Z,56.6
2022-09-26T02:55:01.263Z,56.6
2022-09-26T02:56:01.988Z,56.7
2022-09-26T02:57:01.048Z,57.1
2022-09-26T02:58:01.214Z,57.4
2022-09-26T02:59:01.706Z,57.6
2022-09-26T03:00:01.087Z,57.7
2022-09-26T03:01:01.134Z,59.1
2022-09-26T03:02:01.056Z,60.2
2022-09-26T03:03:01.174Z,62.1
2022-09-26T03:04:01.427Z,64.7
2022-09-26T03:05:01.598Z,66.9
2022-09-26T03:06:01.127Z,68.6
2022-09-26T03:07:01.129Z,69.8
2022-09-26T03:08:01.040Z,71.2
2022-09-26T03:09:01.067Z,72.5
2022-09-26T03:10:01.135Z,73.9
2022-09-26T03:11:01.330Z,75.5
2022-09-26T03:12:01.186Z,77
2022-09-26T03:13:01.300Z,77.9
2022-09-26T03:14:01.480Z,78.5
2022-09-26T03:15:04.143Z,79
2022-09-26T03:16:01.134Z,79.3
2022-09-26T03:17:01.108Z,79.9
2022-09-26T03:18:01.086Z,80.4
2022-09-26T03:19:01.043Z,81.1
2022-09-26T03:20:01.051Z,81.4
2022-09-26T03:21:01.817Z,81.5
2022-09-26T03:22:00.807Z,81.4
2022-09-26T03:23:01.713Z,81.4
2022-09-26T03:24:02.348Z,81.4
2022-09-26T03:25:01.373Z,81.4
2022-09-26T03:26:01.143Z,81.4
2022-09-26T03:27:01.423Z,81.4
2022-09-26T03:28:04.988Z,81.6
2022-09-26T03:29:01.068Z,81.7
2022-09-26T03:30:01.114Z,81.8
2022-09-26T03:31:01.772Z,82.3
2022-09-26T03:32:01.635Z,82.8
2022-09-26T03:33:07.180Z,83.1
2022-09-26T03:34:01.197Z,83.9
2022-09-26T03:35:01.160Z,84.2
2022-09-26T03:36:01.117Z,84.3
2022-09-26T03:37:01.117Z,84.1
2022-09-26T03:38:14.269Z,84.3
2022-09-26T03:39:01.207Z,84.7
2022-09-26T03:40:01.425Z,84.8
2022-09-26T03:41:01.405Z,84.7
2022-09-26T03:43:13.959Z,84.8
2022-09-26T03:44:01.031Z,85
2022-09-26T03:45:01.072Z,85
2022-09-26T03:46:01.196Z,85
2022-09-26T03:47:01.271Z,84.5
2022-09-26T03:48:16.801Z,84
2022-09-26T03:49:04.490Z,83.6
2022-09-26T03:50:01.045Z,83.2
2022-09-26T03:51:01.102Z,83.5
2022-09-26T03:52:01.049Z,83.3
2022-09-26T03:53:01.049Z,83.1
2022-09-26T03:54:01.050Z,82.9
2022-09-26T03:55:01.421Z,82.6
2022-09-26T03:56:01.498Z,82.6
2022-09-26T03:57:01.141Z,82.2
2022-09-26T03:58:01.243Z,82
2022-09-26T03:59:00.721Z,82.5
2022-09-26T04:00:00.313Z,82.4
2022-09-26T04:01:00.183Z,82.4
2022-09-26T04:01:59.880Z,82.2
2022-09-26T04:02:59.517Z,82.3
2022-09-26T04:04:01.678Z,82.2
2022-09-26T04:05:01.674Z,82.5
2022-09-26T04:06:04.249Z,82.3
2022-09-26T04:07:01.180Z,82.2
2022-09-26T04:08:01.109Z,82.3
2022-09-26T04:09:02.444Z,82.3
2022-09-26T04:10:01.934Z,82.3
2022-09-26T04:11:01.054Z,82.5
2022-09-26T04:12:01.158Z,82.5
2022-09-26T04:13:01.914Z,82.6
2022-09-26T04:14:01.455Z,82.8
2022-09-26T04:15:00.496Z,83.1
2022-09-26T04:16:00.193Z,83.2
2022-09-26T04:16:59.859Z,83.5
2022-09-26T04:18:01.725Z,84.2
2022-09-26T04:19:01.067Z,84.7
2022-09-26T04:20:01.521Z,84.9
2022-09-26T04:21:01.044Z,85.2
2022-09-26T04:22:01.455Z,85.5
2022-09-26T04:23:01.152Z,88.1
2022-09-26T04:24:01.680Z,88.4
2022-09-26T04:25:01.117Z,88.5
2022-09-26T04:26:01.272Z,88.2
2022-09-26T04:27:01.131Z,89.4
2022-09-26T04:28:01.123Z,89.6
2022-09-26T04:29:01.133Z,89
2022-09-26T04:30:01.186Z,88.8
2022-09-26T04:31:01.476Z,89.6
2022-09-26T04:32:01.271Z,89.9
2022-09-26T04:33:02.246Z,90.8
2022-09-26T04:34:01.046Z,91.5
2022-09-26T04:35:01.034Z,91.4
2022-09-26T04:36:01.083Z,91.4
2022-09-26T04:37:01.080Z,91.4
2022-09-26T04:38:01.092Z,91.7
2022-09-26T04:39:01.422Z,91.7
2022-09-26T04:40:01.427Z,91.4
2022-09-26T04:41:01.477Z,91.6
2022-09-26T04:42:01.129Z,91.7
2022-09-26T04:43:01.034Z,91.7
2022-09-26T04:44:01.788Z,91.7
2022-09-26T04:45:01.157Z,91.5
2022-09-26T04:46:01.254Z,91.8
2022-09-26T04:47:01.180Z,91.7
2022-09-26T04:48:01.068Z,91.7
2022-09-26T04:49:01.445Z,91.7
2022-09-26T04:50:01.049Z,91.5
2022-09-26T04:51:01.098Z,91.6
2022-09-26T04:52:01.093Z,91.9
2022-09-26T04:53:01.407Z,91.7
2022-09-26T04:54:01.184Z,92.1
2022-09-26T04:55:00.879Z,92.7
2022-09-26T04:56:01.117Z,92.7
2022-09-26T04:57:01.217Z,92.4
2022-09-26T04:58:01.123Z,92.5
2022-09-26T04:59:01.444Z,92.9
2022-09-26T05:00:01.091Z,92.8
2022-09-26T05:01:01.938Z,92.6
2022-09-26T05:02:01.449Z,92.3
2022-09-26T05:03:00.621Z,92.5
2022-09-26T05:04:00.232Z,92.7
2022-09-26T05:05:00.009Z,93
2022-09-26T05:05:59.573Z,93
2022-09-26T05:07:01.198Z,92.7
2022-09-26T05:08:01.775Z,92.8
2022-09-26T05:09:02.096Z,92.7
2022-09-26T05:10:01.182Z,93.1
2022-09-26T05:11:01.856Z,93.1
2022-09-26T05:12:01.944Z,93.4
2022-09-26T05:13:01.538Z,93.2
2022-09-26T05:14:03.995Z,93.1
2022-09-26T05:15:01.198Z,93.4
2022-09-26T05:16:01.221Z,93.8
2022-09-26T05:17:01.846Z,93.7
2022-09-26T05:18:01.543Z,93.7
2022-09-26T05:19:07.678Z,94
2022-09-26T05:20:01.810Z,94.2
2022-09-26T05:21:01.737Z,94.9
2022-09-26T05:22:02.406Z,94.7
2022-09-26T05:23:01.983Z,94.8
2022-09-26T05:24:09.815Z,95.1
2022-09-26T05:25:01.436Z,95.3
2022-09-26T05:26:01.166Z,95.9
2022-09-26T05:27:01.045Z,96.7
2022-09-26T05:28:01.050Z,96.6
2022-09-26T05:29:13.540Z,96.5
2022-09-26T05:30:01.365Z,96.3
2022-09-26T05:31:02.466Z,96.4
2022-09-26T05:32:01.234Z,96.5
2022-09-26T05:33:01.070Z,96.5
2022-09-26T05:34:19.468Z,96.4
2022-09-26T05:35:01.279Z,96.7
2022-09-26T05:36:01.432Z,97
2022-09-26T05:37:02.569Z,97.4
2022-09-26T05:38:01.174Z,97.9
2022-09-26T05:39:01.044Z,98.1
2022-09-26T05:40:01.080Z,98.8
2022-09-26T05:41:01.199Z,99.1
2022-09-26T05:42:01.120Z,99.6
2022-09-26T05:43:00.748Z,99.9
2022-09-26T05:44:00.480Z,99.9
2022-09-26T05:45:00.222Z,99.9
2022-09-26T05:46:00.241Z,99.9
2022-09-26T05:47:00.230Z,99.9
2022-09-26T05:47:59.865Z,99.9
2022-09-26T05:49:01.443Z,99.9
2022-09-26T05:50:01.061Z,99.9
2022-09-26T05:51:01.075Z,99.9
2022-09-26T05:52:01.379Z,99.9
2022-09-26T05:53:01.297Z,99.9
2022-09-26T05:54:01.076Z,99.9
2022-09-26T05:55:01.102Z,99.9
2022-09-26T05:56:01.113Z,99.9
2022-09-26T05:57:01.325Z,99.9
2022-09-26T05:58:02.224Z,99.9
2022-09-26T05:59:02.133Z,99.9
2022-09-26T06:00:01.028Z,99.9
2022-09-26T06:01:01.852Z,99.9
2022-09-26T06:02:01.102Z,99.9
2022-09-26T06:03:01.083Z,99.9
2022-09-26T06:04:01.089Z,99.9
2022-09-26T06:05:01.136Z,99.9
2022-09-26T06:06:01.086Z,99.9
2022-09-26T06:07:01.444Z,99.9
2022-09-26T06:08:01.061Z,99.9
2022-09-26T06:09:01.078Z,99.9
2022-09-26T06:10:01.069Z,99.9
2022-09-26T06:11:01.085Z,99.9
2022-09-26T06:12:01.866Z,99.9
2022-09-26T06:13:01.704Z,99.9
2022-09-26T06:14:01.428Z,99.9
2022-09-26T06:15:02.132Z,99.9
2022-09-26T06:16:01.872Z,99.9
2022-09-26T06:17:01.123Z,99.9
2022-09-26T06:18:01.129Z,99.9
2022-09-26T06:19:01.187Z,99.9
2022-09-26T06:20:01.265Z,99.9
2022-09-26T06:21:01.201Z,99.9
2022-09-26T06:22:01.045Z,99.9
2022-09-26T06:23:01.057Z,99.9
2022-09-26T06:24:01.054Z,99.9
2022-09-26T06:25:00.607Z,99.9
2022-09-26T06:26:00.251Z,99.9
2022-09-26T06:26:59.798Z,99.9
2022-09-26T06:28:01.755Z,99.9
2022-09-26T06:29:01.863Z,99.9
2022-09-26T06:30:02.002Z,99.9
2022-09-26T06:31:02.642Z,99.9
2022-09-26T06:32:02.568Z,99.9
2022-09-26T06:33:02.052Z,99.9
2022-09-26T06:34:01.487Z,99.9
2022-09-26T06:35:01.051Z,99.9
2022-09-26T06:36:01.090Z,99.9
2022-09-26T06:37:01.040Z,99.9
2022-09-26T06:38:01.033Z,99.9
2022-09-26T06:39:01.057Z,99.9
2022-09-26T06:40:01.153Z,99.9
2022-09-26T06:41:01.237Z,99.9
2022-09-26T06:42:01.456Z,99.9
2022-09-26T06:43:02.086Z,99.9
2022-09-26T06:44:01.781Z,99.9
2022-09-26T06:45:01.105Z,99.8
2022-09-26T06:46:01.116Z,99.7
2022-09-26T06:47:01.234Z,99
2022-09-26T06:48:01.112Z,98.8
2022-09-26T06:49:01.148Z,98.5
2022-09-26T06:50:01.035Z,98.1
2022-09-26T06:51:01.172Z,98.5
2022-09-26T06:52:01.602Z,98.3
2022-09-26T06:53:07.686Z,98.2
2022-09-26T06:54:01.877Z,98.2
2022-09-26T06:55:02.131Z,98.4
2022-09-26T06:56:00.492Z,98.7
2022-09-26T06:57:00.061Z,98.7
2022-09-26T06:57:59.899Z,98.2
2022-09-26T06:58:59.874Z,97.8
2022-09-26T07:00:01.704Z,97.8
2022-09-26T07:01:00.813Z,97.2
2022-09-26T07:02:00.795Z,95.9
2022-09-26T07:03:01.275Z,95.7
2022-09-26T07:04:00.605Z,96.1
2022-09-26T07:05:03.336Z,96.2
2022-09-26T07:06:01.569Z,96.9
2022-09-26T07:07:00.711Z,96.4
2022-09-26T07:08:00.643Z,95.9
2022-09-26T07:09:04.079Z,95.6
2022-09-26T07:10:07.805Z,95.8
2022-09-26T07:11:16.114Z,95.9
2022-09-26T07:12:16.934Z,95.7
2022-09-26T07:13:01.072Z,95.9
2022-09-26T07:14:01.159Z,95.6
2022-09-26T07:15:09.202Z,95.7
2022-09-26T07:16:01.095Z,95.7
2022-09-26T07:17:01.813Z,95.8
2022-09-26T07:18:01.141Z,95.8
2022-09-26T07:19:01.339Z,95.6
2022-09-26T07:20:13.634Z,95.8
2022-09-26T07:21:01.924Z,96.2
2022-09-26T07:22:01.339Z,96.3
2022-09-26T07:23:01.148Z,95.3
2022-09-26T07:24:01.194Z,94.8
2022-09-26T07:25:14.956Z,95
2022-09-26T07:26:01.396Z,94.9
2022-09-26T07:27:01.394Z,95.2
2022-09-26T07:28:01.405Z,95.3
2022-09-26T07:29:02.110Z,95.1
2022-09-26T07:30:17.077Z,95.3
2022-09-26T07:31:01.182Z,95.5
2022-09-26T07:32:01.221Z,95.3
2022-09-26T07:33:01.106Z,95.5
2022-09-26T07:34:01.111Z,95.5
2022-09-26T07:35:01.275Z,96.1
2022-09-26T07:36:05.194Z,95.4
2022-09-26T07:37:01.132Z,95.3
2022-09-26T07:38:01.132Z,95.2
2022-09-26T07:39:01.139Z,95
2022-09-26T07:40:01.980Z,95.2
2022-09-26T07:41:01.514Z,95.3
2022-09-26T07:42:01.747Z,96.1
2022-09-26T07:44:58.963Z,96.1
2022-09-26T07:45:22.355Z,96
2022-09-26T07:46:01.810Z,96.1
2022-09-26T07:47:01.954Z,95.9
2022-09-26T07:48:01.792Z,95.4
2022-09-26T07:49:01.096Z,95.1
2022-09-26T07:50:01.132Z,95.1
2022-09-26T07:51:04.593Z,95
2022-09-26T07:52:01.116Z,94.8
2022-09-26T07:53:01.157Z,93.8
2022-09-26T07:54:01.196Z,93.4
2022-09-26T07:55:01.164Z,93.8
2022-09-26T07:56:05.300Z,93.2
2022-09-26T07:57:02.417Z,92.8
2022-09-26T07:58:01.403Z,92.8
2022-09-26T07:59:01.483Z,92.5
2022-09-26T08:00:02.107Z,92.1
2022-09-26T08:01:01.152Z,92.6
2022-09-26T08:02:01.196Z,92.5
2022-09-26T08:03:02.082Z,93.1
2022-09-26T08:04:01.154Z,94.3
2022-09-26T08:05:01.409Z,94.5
2022-09-26T08:06:02.123Z,94.7
2022-09-26T08:07:01.045Z,94.2
2022-09-26T08:08:01.064Z,93.4
2022-09-26T08:09:01.043Z,93.9
2022-09-26T08:10:01.046Z,93.9
2022-09-26T08:11:04.048Z,93.7
2022-09-26T08:12:01.057Z,93.3
2022-09-26T08:13:01.076Z,93.2
2022-09-26T08:14:01.085Z,93.2
2022-09-26T08:15:01.130Z,93.6
2022-09-26T08:16:01.265Z,94.7
2022-09-26T08:17:01.116Z,94
2022-09-26T08:18:01.105Z,93.7
2022-09-26T08:19:01.108Z,93.9
2022-09-26T08:20:01.150Z,93.5
2022-09-26T08:21:01.035Z,93.1
2022-09-26T08:22:01.143Z,93
2022-09-26T08:23:00.705Z,92.1
2022-09-26T08:24:00.303Z,92.2
2022-09-26T08:24:59.912Z,92.2
2022-09-26T08:25:59.493Z,90.3
2022-09-26T08:27:01.056Z,89.7
2022-09-26T08:28:01.061Z,91.4
2022-09-26T08:29:01.065Z,91.7
2022-09-26T08:30:01.082Z,89.7
2022-09-26T08:31:01.127Z,85
2022-09-26T08:32:01.052Z,85.7
2022-09-26T08:33:01.032Z,83.7
2022-09-26T08:34:01.488Z,84.6
2022-09-26T08:35:01.177Z,85.8
2022-09-26T08:36:01.047Z,84.3
2022-09-26T08:37:01.704Z,79.8
2022-09-26T08:38:01.317Z,83.4
2022-09-26T08:39:01.175Z,79.4
2022-09-26T08:40:01.434Z,73.2
2022-09-26T08:41:01.413Z,63.4
2022-09-26T08:42:02.595Z,62.5
2022-09-26T08:43:01.137Z,64.1
2022-09-26T08:44:01.046Z,65.1
2022-09-26T08:45:01.074Z,66.5
2022-09-26T08:46:01.256Z,72.9
2022-09-26T08:47:01.164Z,70.2
2022-09-26T08:48:01.374Z,69
2022-09-26T08:49:01.106Z,69
2022-09-26T08:50:01.126Z,67.5
2022-09-26T08:51:01.096Z,65.9
2022-09-26T08:52:00.880Z,63.6
2022-09-26T08:53:00.488Z,59.5
2022-09-26T08:54:00.192Z,56.9
2022-09-26T08:54:59.884Z,57.8
2022-09-26T08:56:04.163Z,66.4
2022-09-26T08:57:01.211Z,68.5
2022-09-26T08:58:01.545Z,66.4
2022-09-26T08:59:01.160Z,67.2
2022-09-26T09:00:03.940Z,70.8
2022-09-26T09:01:08.506Z,70.1
2022-09-26T09:02:01.418Z,67.5
2022-09-26T09:03:01.257Z,62.7
2022-09-26T09:04:01.950Z,49.6
2022-09-26T09:05:02.044Z,49.8
2022-09-26T09:06:11.349Z,48.2
2022-09-26T09:07:01.478Z,47.5
2022-09-26T09:08:01.125Z,48
2022-09-26T09:09:01.113Z,49
2022-09-26T09:10:01.304Z,49.2
2022-09-26T09:11:14.242Z,48.3
2022-09-26T09:12:01.121Z,39.1
2022-09-26T09:13:01.156Z,39.7
2022-09-26T09:14:00.668Z,40.5
2022-09-26T09:15:23.425Z,40.6
2022-09-26T09:16:16.966Z,39.2
2022-09-26T09:17:01.071Z,39.2
2022-09-26T09:18:01.234Z,39.6
2022-09-26T09:19:01.086Z,39.6
2022-09-26T09:20:01.089Z,40.3
2022-09-26T09:21:01.090Z,40.5
2022-09-26T09:22:01.096Z,40.4
2022-09-26T09:23:00.819Z,41.6
2022-09-26T09:24:00.384Z,39.1
2022-09-26T09:25:00.092Z,39.1
2022-09-26T09:27:52.421Z,40.2
2022-09-26T09:28:07.154Z,42.6
2022-09-26T09:29:01.247Z,42.8
2022-09-26T09:30:01.153Z,41.4
2022-09-26T09:31:01.188Z,41.4
2022-09-26T09:32:01.067Z,41.7
2022-09-26T09:33:01.210Z,40.4
2022-09-26T09:34:01.060Z,42.5
2022-09-26T09:35:01.084Z,42.1
2022-09-26T09:36:01.246Z,41.5
2022-09-26T09:37:01.424Z,40.1
2022-09-26T09:38:02.460Z,38
2022-09-26T09:39:02.145Z,35.7
2022-09-26T09:40:02.142Z,35.4
2022-09-26T09:41:01.195Z,34.9
2022-09-26T09:42:01.152Z,32.3
2022-09-26T09:43:01.132Z,30.7
2022-09-26T09:44:01.130Z,33.6
2022-09-26T09:45:01.141Z,31.5
2022-09-26T09:46:01.138Z,29.5
2022-09-26T09:47:01.490Z,27
2022-09-26T09:48:01.171Z,23.8
2022-09-26T09:49:01.091Z,23.8
2022-09-26T09:50:01.146Z,23.1
2022-09-26T09:51:01.097Z,21.3
2022-09-26T09:52:01.065Z,21.7
2022-09-26T09:53:01.049Z,22.2
2022-09-26T09:54:01.116Z,22.8
2022-09-26T09:55:01.239Z,24.1
2022-09-26T09:56:01.252Z,24.3
2022-09-26T09:57:03.925Z,25.1
2022-09-26T09:58:01.804Z,24.1
2022-09-26T09:59:01.138Z,22.3
2022-09-26T10:00:02.284Z,22.6
2022-09-26T10:01:01.242Z,22.1
2022-09-26T10:02:01.967Z,22.6
2022-09-26T10:03:00.790Z,24.2
2022-09-26T10:04:00.651Z,23.8
2022-09-26T10:05:00.362Z,22.9
2022-09-26T10:05:59.932Z,21.5
2022-09-26T10:06:59.531Z,21
2022-09-26T10:08:01.111Z,22.5
2022-09-26T10:09:01.099Z,21.5
2022-09-26T10:10:02.547Z,21.3
2022-09-26T10:11:02.420Z,20.9
2022-09-26T10:12:01.333Z,20.3
2022-09-26T10:13:02.407Z,21
2022-09-26T10:14:01.459Z,21.7
2022-09-26T10:15:02.688Z,20.5
2022-09-26T10:16:02.126Z,19.5
2022-09-26T10:17:01.154Z,19.5
2022-09-26T10:18:23.363Z,18.1
2022-09-26T10:19:03.647Z,18.3
2022-09-26T10:20:01.064Z,18.6
2022-09-26T10:21:01.070Z,18.4
2022-09-26T10:22:01.631Z,19.7
2022-09-26T10:23:00.781Z,19.8
2022-09-26T10:24:00.312Z,19
2022-09-26T10:24:59.836Z,20
2022-09-26T10:26:02.199Z,16.3
2022-09-26T10:27:02.023Z,16.2
2022-09-26T10:28:01.070Z,15.3
2022-09-26T10:29:01.123Z,11.9
2022-09-26T10:30:01.045Z,11.5
2022-09-26T10:31:01.203Z,12.3
2022-09-26T10:32:01.163Z,11.2
2022-09-26T10:33:01.597Z,9.9
2022-09-26T10:34:01.183Z,9.7
2022-09-26T10:35:01.204Z,10
2022-09-26T10:36:01.078Z,10.7
2022-09-26T10:37:01.061Z,9.8
2022-09-26T10:38:01.254Z,9.9
2022-09-26T10:39:01.289Z,10.1
2022-09-26T10:40:01.894Z,9.8
2022-09-26T10:41:01.315Z,10.4
2022-09-26T10:42:00.783Z,10.6
2022-09-26T10:43:00.481Z,9.6
2022-09-26T10:44:00.081Z,9.6
2022-09-26T10:44:59.700Z,8.3
2022-09-26T10:46:02.437Z,8.1
2022-09-26T10:47:03.496Z,7.3
2022-09-26T10:48:02.167Z,5.6
2022-09-26T10:49:01.062Z,5
2022-09-26T10:50:01.057Z,5.6
2022-09-26T10:51:01.069Z,5.1
2022-09-26T10:52:06.439Z,5.4
2022-09-26T10:53:01.075Z,6.4
2022-09-26T10:54:01.457Z,4.4
2022-09-26T10:55:01.088Z,4.4
2022-09-26T10:56:01.324Z,4.6
2022-09-26T10:57:09.299Z,3
2022-09-26T10:58:01.058Z,2.7
2022-09-26T10:59:01.145Z,3
2022-09-26T11:00:02.039Z,2.9
2022-09-26T11:01:02.586Z,1.7
2022-09-26T11:02:12.284Z,2
2022-09-26T11:03:01.408Z,2.1
2022-09-26T11:04:01.137Z,2.8
2022-09-26T11:05:03.916Z,1
2022-09-26T11:06:01.053Z,1.1
2022-09-26T11:07:14.782Z,1
2022-09-26T11:08:01.065Z,1
2022-09-26T11:09:02.453Z,1
2022-09-26T11:10:02.307Z,1
2022-09-26T11:11:01.068Z,1
2022-09-26T11:12:01.096Z,1
2022-09-26T11:13:01.034Z,1
2022-09-26T11:14:01.107Z,1
2022-09-26T11:15:01.042Z,1
2022-09-26T11:16:01.403Z,1
2022-09-26T11:17:01.129Z,1
2022-09-26T11:18:01.511Z,1
2022-09-26T11:19:01.731Z,1
2022-09-26T11:20:01.605Z,1
2022-09-26T11:21:02.071Z,1
2022-09-26T11:22:05.782Z,1
2022-09-26T11:23:00.860Z,1
2022-09-26T11:24:00.447Z,1
2022-09-26T11:25:00.096Z,1
2022-09-26T11:25:59.745Z,1
2022-09-26T11:27:02.930Z,1
2022-09-26T11:28:02.072Z,1
2022-09-26T11:29:01.115Z,1
2022-09-26T11:30:01.107Z,1
2022-09-26T11:31:02.413Z,1
2022-09-26T11:32:01.686Z,1
2022-09-26T11:33:01.313Z,1
2022-09-26T11:34:01.446Z,1
2022-09-26T11:35:02.059Z,1
2022-09-26T11:36:01.155Z,1
2022-09-26T11:37:01.166Z,1
2022-09-26T11:38:01.074Z,1
2022-09-26T11:39:01.050Z,1
2022-09-26T11:40:02.333Z,1
2022-09-26T11:41:01.175Z,1
2022-09-26T11:42:02.401Z,1
2022-09-26T11:43:01.049Z,1
2022-09-26T11:44:01.104Z,1
2022-09-26T11:45:01.108Z,1
2022-09-26T11:46:01.199Z,1
2022-09-26T11:47:01.693Z,1
2022-09-26T11:48:01.679Z,1
2022-09-26T11:49:01.432Z,1
2022-09-26T11:50:01.868Z,1
2022-09-26T11:51:01.136Z,1
2022-09-26T11:52:01.047Z,1
2022-09-26T11:53:00.654Z,1
2022-09-26T11:54:01.803Z,1
2022-09-26T11:55:02.346Z,1
2022-09-26T11:56:02.413Z,1
2022-09-26T11:57:01.149Z,1
2022-09-26T11:58:03.486Z,1
2022-09-26T11:59:02.018Z,1
2022-09-26T12:00:02.317Z,1
2022-09-26T12:01:01.131Z,1
2022-09-26T12:02:01.214Z,1
2022-09-26T12:03:01.089Z,1
2022-09-26T12:04:01.653Z,1
2022-09-26T12:05:01.152Z,1
2022-09-26T12:06:01.138Z,1
2022-09-26T12:07:01.148Z,1
2022-09-26T12:08:01.059Z,1
2022-09-26T12:09:01.065Z,1
2022-09-26T12:10:01.812Z,1
2022-09-26T12:11:02.057Z,1
2022-09-26T12:12:02.092Z,1
2022-09-26T12:13:01.473Z,1
2022-09-26T12:14:02.289Z,1
2022-09-26T12:15:02.372Z,1
2022-09-26T12:16:02.068Z,1
2022-09-26T12:17:02.041Z,1
2022-09-26T12:18:01.414Z,1
2022-09-26T12:19:02.781Z,1
2022-09-26T12:20:04.100Z,1
2022-09-26T12:21:01.440Z,1
2022-09-26T12:22:01.422Z,1
2022-09-26T12:23:02.614Z,1
2022-09-26T12:24:03.064Z,1
2022-09-26T12:25:02.107Z,1
2022-09-26T12:26:01.471Z,1
2022-09-26T12:27:01.073Z,1
2022-09-26T12:28:05.398Z,1
2022-09-26T12:29:01.182Z,1
2022-09-26T12:30:01.500Z,1
2022-09-26T12:31:02.213Z,1
2022-09-26T12:32:02.165Z,1
2022-09-26T12:33:08.374Z,1
2022-09-26T12:34:01.442Z,1
2022-09-26T12:35:01.505Z,1
2022-09-26T12:36:01.031Z,1
2022-09-26T12:37:01.029Z,1
2022-09-26T12:38:08.524Z,1
2022-09-26T12:39:01.052Z,1
2022-09-26T12:40:01.573Z,1
2022-09-26T12:41:01.968Z,1
2022-09-26T12:42:01.680Z,1
2022-09-26T12:43:10.186Z,1
2022-09-26T12:44:01.395Z,1
2022-09-26T12:45:04.214Z,1
2022-09-26T12:46:02.134Z,1
2022-09-26T12:47:01.530Z,1
2022-09-26T12:48:13.780Z,1
2022-09-26T12:49:02.005Z,1
2022-09-26T12:50:01.412Z,1
2022-09-26T12:51:01.117Z,1
2022-09-26T12:52:01.133Z,1
2022-09-26T12:53:16.461Z,1
2022-09-26T12:54:01.952Z,1
2022-09-26T12:55:01.435Z,1
2022-09-26T12:56:01.658Z,1
2022-09-26T12:57:01.127Z,1
2022-09-26T12:58:01.090Z,1
2022-09-26T12:59:01.414Z,1
2022-09-26T13:00:01.047Z,1
2022-09-26T13:01:01.915Z,1
2022-09-26T13:02:01.877Z,1
2022-09-26T13:03:01.803Z,1
2022-09-26T13:04:01.406Z,1
2022-09-26T13:05:01.122Z,1
2022-09-26T13:06:04.999Z,1
2022-09-26T13:07:18.891Z,1
2022-09-26T13:08:02.071Z,1
2022-09-26T13:09:02.077Z,1
2022-09-26T13:10:02.385Z,1
2022-09-26T13:11:01.064Z,1
2022-09-26T13:12:01.048Z,1
2022-09-26T13:13:01.938Z,1
2022-09-26T13:14:02.040Z,1
2022-09-26T13:15:01.102Z,1
2022-09-26T13:16:01.380Z,1
2022-09-26T13:17:02.199Z,1
2022-09-26T13:18:01.222Z,1
2022-09-26T13:19:01.038Z,1
2022-09-26T13:20:01.053Z,1
2022-09-26T13:21:01.355Z,1
2022-09-26T13:22:01.351Z,1
2022-09-26T13:23:02.127Z,1
2022-09-26T13:24:00.962Z,1
2022-09-26T13:25:01.044Z,1
2022-09-26T13:26:01.437Z,1
2022-09-26T13:27:01.075Z,1
2022-09-26T13:28:01.686Z,1
2022-09-26T13:29:16.779Z,1
2022-09-26T13:30:02.796Z,1
2022-09-26T13:31:02.243Z,1
2022-09-26T13:32:01.677Z,1
2022-09-26T13:33:01.935Z,1
2022-09-26T13:34:01.092Z,1
2022-09-26T13:35:01.108Z,1
2022-09-26T13:36:01.412Z,1
2022-09-26T13:37:01.742Z,1
2022-09-26T13:38:06.173Z,1
2022-09-26T13:39:01.769Z,1
2022-09-26T13:40:01.489Z,1
2022-09-26T13:41:01.267Z,1
2022-09-26T13:42:01.075Z,1
2022-09-26T13:43:03.121Z,1